首页
METAR-TAF:

METAR-TAF

机场 :

彭萨科拉, 佛罗里达州, 美国

纬度: 30-21-22N, 经度: 087-19-24W, 海拔: 9米

当前天气观测

该预报发布于59分钟前的08:56 UTC
风速15节,风向,有时为25节阵风
温度 29°C
湿度 66%
气压 1015 hPa
能見度: 16.1公里
多云层高于2900英尺

METAR: KNPA 190856Z AUTO 10015G25KT 10SM BKN029 29/22 A2996 RMK AO2 PK WND 10029/0810 SLP148 T02940222 56002 $

时间: 04:55 (09:55 UTC)

预报

预报有效从18日的 15点(UTC)到 19日的 15点(UTC)
风速18节,风向,有时为28节阵风
能见度10公里或以上
散云层高于2500英尺
多云层高于25000英尺
从 19日的 0100点(UTC)
风速12节,风向,有时为22节阵风
能见度10公里或以上
少量云层高于2500英尺
多云层高于25000英尺
从 19日的 0800点(UTC)
风速15节,风向,有时为27节阵风
能見度: 2011
少量云层高于2000英尺
散云层高于4000英尺
多云层高于25000英尺
附近有阵雨,

TAF: KNPA 1815/1915 10018G28KT 9999 SCT025 BKN250 QNH2991INS FM190100 09012G22KT 9999 FEW025 BKN250 QNH2993INS FM190800 09015G27KT 9999 VCSH FEW020 SCT040 BKN250 QNH2993INS LAST NO AMDS AFT 1817 NEXT 2007 AUTOMATED SENSOR METWATCH 1903 TIL 2011 TX33/1821Z TN27/1912Z FN20033

超过4000个机场的气象观测和天气预报(METAR&TAF报告)。

可查询的气象台以黄色和红色小点在地图上表示。

将鼠标移到小点上方,可查看气象台名称。

然后点击查看天气观测和预报。

如需切换地图:点击带黑十字的绿色按钮放大地图;点击带横线的绿色按钮缩小地图;或者点击绿色箭头查看邻近地区的地图。


METAR-TAF: